Time;durP1;ratioP1;P1;durP2;ratioP2;P2;SDS_P1;SDS_P2;PMS_P1;PMS_P2;Temp;Humidity;BMP_temperature;BMP_pressure;BME280_temperature;BME280_humidity;BME280_pressure;Samples;Min_cycle;Max_cycle;Signal;HPM_P1;HPM_P2
2022/10/02 04:03:13;;;;;;;0.80;0.10;;;13.50;99.90;;;;;;5057832;23;92788;-84
2022/10/02 04:06:03;;;;;;;0.80;0.20;;;13.50;99.90;;;;;;4910777;28;91874;-82
2022/10/02 04:08:42;;;;;;;0.70;0.20;;;13.50;99.90;;;;;;4911079;28;92194;-83
2022/10/02 04:11:42;;;;;;;0.88;0.40;;;13.50;99.90;;;;;;4909863;28;91758;-83
2022/10/02 04:21:53;;;;;;;0.85;0.20;;;12.70;99.90;;;;;;4922347;28;91495;-79
2022/10/02 04:24:50;;;;;;;1.60;0.20;;;12.90;99.90;;;;;;4915764;28;91955;-78
2022/10/02 04:27:30;;;;;;;2.15;0.40;;;12.80;99.90;;;;;;4911137;28;91966;-79
2022/10/02 04:30:04;;;;;;;1.20;0.40;;;12.80;99.90;;;;;;4912228;28;91482;-79
2022/10/02 04:32:35;;;;;;;1.42;0.40;;;12.90;99.90;;;;;;4918047;28;94358;-78
2022/10/02 04:35:15;;;;;;;3.03;0.30;;;13.00;99.90;;;;;;4917993;28;92604;-79
2022/10/02 04:38:02;;;;;;;2.58;0.30;;;12.90;99.90;;;;;;4913797;28;92159;-82
2022/10/02 04:40:52;;;;;;;1.15;0.10;;;12.90;99.90;;;;;;4920450;28;91342;-81
2022/10/02 04:43:20;;;;;;;1.85;0.30;;;13.00;99.90;;;;;;4922505;28;91585;-81
2022/10/02 04:56:45;;;;;;;1.33;0.30;;;12.90;99.90;;;;;;4920992;28;91729;-82
2022/10/02 04:59:38;;;;;;;1.52;0.35;;;12.90;99.90;;;;;;4921987;28;91091;-83
2022/10/02 05:02:19;;;;;;;1.30;0.30;;;12.80;99.90;;;;;;4908995;28;92308;-80
2022/10/02 05:05:06;;;;;;;2.17;0.40;;;12.80;99.90;;;;;;4915733;28;91655;-82
2022/10/02 05:07:37;;;;;;;2.30;0.40;;;12.80;99.90;;;;;;4908680;28;92827;-79
2022/10/02 05:10:33;;;;;;;1.00;0.40;;;12.80;99.90;;;;;;4909823;28;91923;-79
2022/10/02 05:12:58;;;;;;;;;;;12.90;99.90;;;;;;4912294;28;92055;-81
2022/10/02 05:15:32;;;;;;;0.60;0.10;;;13.00;99.90;;;;;;4908763;28;91880;-79
2022/10/02 05:18:36;;;;;;;1.27;0.10;;;12.90;99.90;;;;;;4910089;28;91924;-79
2022/10/02 05:21:23;;;;;;;0.38;0.10;;;12.90;99.90;;;;;;4915322;28;91988;-80
2022/10/02 05:23:58;;;;;;;0.30;0.10;;;13.00;99.90;;;;;;4907618;28;91367;-82
2022/10/02 05:26:51;;;;;;;0.70;0.10;;;13.10;99.90;;;;;;4909809;28;91488;-85
2022/10/02 05:29:43;;;;;;;2.88;0.10;;;13.10;99.90;;;;;;4907107;28;92738;-85
2022/10/02 05:32:43;;;;;;;0.38;0.10;;;13.20;99.90;;;;;;4906154;28;92159;-82
2022/10/02 05:35:34;;;;;;;1.27;0.10;;;13.30;99.90;;;;;;4910108;28;91437;-82
2022/10/02 05:38:32;;;;;;;0.25;0.00;;;13.40;99.90;;;;;;4915168;28;91497;-80
2022/10/02 05:41:24;;;;;;;0.75;0.10;;;13.40;99.90;;;;;;4907986;28;91647;-79
2022/10/02 05:44:07;;;;;;;0.77;0.00;;;13.50;99.90;;;;;;4909688;28;92542;-79
2022/10/02 05:46:40;;;;;;;1.20;0.10;;;13.60;99.90;;;;;;4905623;28;92664;-78
2022/10/02 05:49:52;;;;;;;0.40;0.13;;;13.60;99.90;;;;;;4910581;28;91248;-79
2022/10/02 05:52:36;;;;;;;0.52;0.10;;;13.70;99.90;;;;;;4900106;28;91705;-78
2022/10/02 05:55:48;;;;;;;1.05;0.00;;;13.70;99.90;;;;;;4911012;28;92145;-82
2022/10/02 05:58:57;;;;;;;1.15;0.10;;;13.80;99.90;;;;;;4874167;28;92289;-78
2022/10/02 06:01:29;;;;;;;0.70;0.10;;;13.90;99.90;;;;;;4875308;28;92061;-78
2022/10/02 06:04:16;;;;;;;0.30;0.10;;;13.90;99.90;;;;;;4928565;28;91586;-78
2022/10/02 06:06:54;;;;;;;0.40;0.22;;;13.90;99.90;;;;;;4937194;28;91978;-78
2022/10/02 06:09:33;;;;;;;2.22;0.22;;;13.90;99.90;;;;;;4934787;28;91328;-78
2022/10/02 06:12:25;;;;;;;0.50;0.20;;;14.00;99.90;;;;;;4937046;28;91134;-76
2022/10/02 06:15:26;;;;;;;1.38;0.05;;;14.00;99.90;;;;;;4925204;28;91482;-80
2022/10/02 06:17:58;;;;;;;1.67;0.10;;;13.90;99.90;;;;;;4919696;28;91185;-77
2022/10/02 06:20:52;;;;;;;0.80;0.10;;;13.90;99.90;;;;;;4927666;28;91569;-80
2022/10/02 06:23:29;;;;;;;0.70;0.20;;;13.80;99.90;;;;;;4918931;28;91347;-78
2022/10/02 06:26:34;;;;;;;1.33;0.10;;;13.90;99.90;;;;;;4923787;28;93747;-78
2022/10/02 06:29:06;;;;;;;0.75;0.20;;;14.00;99.90;;;;;;4924445;28;92397;-80
2022/10/02 06:31:49;;;;;;;0.47;0.13;;;14.10;99.90;;;;;;4931598;28;91337;-79
2022/10/02 06:34:15;;;;;;;1.13;0.30;;;14.20;99.90;;;;;;4933641;28;91833;-81
2022/10/02 06:36:50;;;;;;;0.85;0.20;;;14.10;99.90;;;;;;4928725;28;92569;-79
2022/10/02 06:39:44;;;;;;;1.48;0.10;;;14.10;99.90;;;;;;4924309;28;93068;-78
2022/10/02 06:42:31;;;;;;;0.90;0.20;;;14.30;99.90;;;;;;4935235;28;91362;-80
2022/10/02 06:45:02;;;;;;;0.90;0.10;;;14.20;99.90;;;;;;4937191;28;90627;-78
2022/10/02 06:47:43;;;;;;;1.20;0.20;;;14.20;99.90;;;;;;4930378;28;92361;-77
2022/10/02 06:50:54;;;;;;;0.77;0.10;;;14.30;99.90;;;;;;4924028;28;92041;-77
2022/10/02 06:53:51;;;;;;;0.85;0.10;;;14.50;99.90;;;;;;4895027;28;94778;-78
2022/10/02 06:56:25;;;;;;;0.50;0.10;;;14.50;99.90;;;;;;4932250;28;91464;-78
2022/10/02 06:59:36;;;;;;;0.80;0.10;;;14.50;99.90;;;;;;4928098;28;91771;-78
2022/10/02 07:02:16;;;;;;;1.60;0.13;;;14.60;99.90;;;;;;4921934;28;93244;-78
2022/10/02 07:04:56;;;;;;;2.67;0.10;;;14.90;99.90;;;;;;4936053;28;91513;-78
2022/10/02 07:08:00;;;;;;;1.20;0.20;;;15.20;99.90;;;;;;4928335;28;91666;-78
2022/10/02 07:11:00;;;;;;;0.55;0.10;;;15.40;99.90;;;;;;4923943;28;91789;-78
2022/10/02 07:14:03;;;;;;;0.90;0.45;;;15.70;99.90;;;;;;4916387;28;91269;-78
2022/10/02 07:16:51;;;;;;;0.70;0.10;;;16.20;99.90;;;;;;4954167;28;92154;-80
2022/10/02 07:19:23;;;;;;;1.27;0.20;;;16.30;99.90;;;;;;4937266;28;91711;-78
2022/10/02 07:22:10;;;;;;;0.70;0.20;;;16.30;99.90;;;;;;4951111;28;92828;-80
2022/10/02 07:24:47;;;;;;;0.52;0.10;;;16.40;99.90;;;;;;4937127;28;93812;-79
2022/10/02 07:27:41;;;;;;;0.65;0.10;;;16.50;99.90;;;;;;4942029;28;91672;-79
2022/10/02 07:30:11;;;;;;;2.80;0.20;;;16.90;99.90;;;;;;4937595;28;91327;-78
2022/10/02 07:32:58;;;;;;;1.02;0.22;;;16.70;99.90;;;;;;4930831;28;91953;-82
2022/10/02 07:35:26;;;;;;;0.60;0.10;;;16.90;99.90;;;;;;4945593;28;93317;-78
2022/10/02 07:38:20;;;;;;;0.75;0.10;;;16.70;99.90;;;;;;4929229;28;91360;-79
2022/10/02 07:41:16;;;;;;;0.85;0.13;;;16.40;99.90;;;;;;4943157;28;92005;-79
2022/10/02 07:44:30;;;;;;;0.60;0.20;;;16.30;99.90;;;;;;5025437;28;80873;-75
2022/10/02 07:47:14;;;;;;;0.30;0.00;;;16.30;99.90;;;;;;5017431;28;81472;-75
2022/10/02 07:50:28;;;;;;;0.90;0.10;;;16.20;99.90;;;;;;5021875;28;81305;-74
2022/10/02 07:52:56;;;;;;;0.63;0.10;;;16.30;99.90;;;;;;4982556;28;82213;-74
2022/10/02 07:55:23;;;;;;;0.80;0.10;;;16.20;99.90;;;;;;4982705;28;80840;-71
2022/10/02 07:58:14;;;;;;;1.15;0.10;;;16.30;99.90;;;;;;5002178;27;81548;-76
2022/10/02 08:01:16;;;;;;;0.70;0.20;;;16.30;99.90;;;;;;5029487;28;80732;-77
2022/10/02 08:03:55;;;;;;;0.77;0.20;;;16.30;99.90;;;;;;4987599;28;81730;-76
2022/10/02 08:06:20;;;;;;;1.55;0.20;;;16.30;99.90;;;;;;5007798;28;81261;-75
2022/10/02 08:09:04;;;;;;;1.63;0.30;;;16.30;99.90;;;;;;4994601;28;80760;-76
2022/10/02 08:11:52;;;;;;;8.30;0.20;;;16.30;99.90;;;;;;4997777;28;80754;-68
2022/10/02 08:14:40;;;;;;;0.90;0.20;;;16.20;99.90;;;;;;5001475;28;83100;-74
2022/10/02 08:17:21;;;;;;;2.08;0.10;;;16.30;99.90;;;;;;4998494;28;82124;-74
2022/10/02 08:19:50;;;;;;;0.80;0.20;;;16.30;99.90;;;;;;5004834;28;81595;-74
2022/10/02 08:22:25;;;;;;;1.02;0.30;;;16.30;99.90;;;;;;4999200;28;82132;-72
2022/10/02 08:24:55;;;;;;;2.08;0.10;;;16.30;99.90;;;;;;5006852;28;81544;-73
2022/10/02 08:27:43;;;;;;;1.35;0.10;;;16.30;99.90;;;;;;5001083;28;81829;-73
2022/10/02 08:30:12;;;;;;;1.13;0.10;;;16.20;99.90;;;;;;4994489;28;82100;-73
2022/10/02 08:32:38;;;;;;;1.45;0.20;;;16.30;99.90;;;;;;5001177;28;81082;-73
2022/10/02 08:35:15;;;;;;;1.58;0.10;;;16.40;99.90;;;;;;5003837;28;82604;-75
2022/10/02 08:37:44;;;;;;;0.88;0.10;;;16.40;99.90;;;;;;5002081;28;81736;-73
2022/10/02 08:40:28;;;;;;;1.83;0.40;;;16.60;99.90;;;;;;5001727;28;82358;-74
2022/10/02 08:43:48;;;;;;;1.10;0.10;;;16.90;99.90;;;;;;4994306;28;82387;-73
2022/10/02 08:46:37;;;;;;;1.10;0.10;;;17.60;98.80;;;;;;4998280;28;81687;-73
2022/10/02 08:49:41;;;;;;;0.50;0.13;;;17.90;98.50;;;;;;4994945;28;82548;-72
2022/10/02 08:52:43;;;;;;;0.73;0.10;;;17.80;96.80;;;;;;4995811;28;81736;-73
2022/10/02 08:55:45;;;;;;;0.50;0.10;;;17.70;97.30;;;;;;4988425;28;81565;-72
2022/10/02 08:58:13;;;;;;;0.57;0.17;;;17.60;96.60;;;;;;4987516;28;81579;-72
2022/10/02 09:00:48;;;;;;;1.35;0.20;;;17.70;96.60;;;;;;4985321;28;81569;-73
2022/10/02 09:03:44;;;;;;;0.70;0.10;;;17.80;96.20;;;;;;4984119;28;81389;-73
2022/10/02 09:06:24;;;;;;;0.90;0.10;;;17.90;97.40;;;;;;4990597;28;81558;-73
2022/10/02 09:09:19;;;;;;;5.82;0.10;;;18.00;96.30;;;;;;4987112;28;81153;-73
2022/10/02 09:12:10;;;;;;;0.73;0.10;;;17.80;95.20;;;;;;4987133;28;80775;-73
2022/10/02 09:14:49;;;;;;;2.75;0.20;;;17.90;96.20;;;;;;4985376;28;82482;-72
2022/10/02 09:17:20;;;;;;;0.80;0.20;;;17.80;96.00;;;;;;4986596;28;81107;-72
2022/10/02 09:20:09;;;;;;;2.42;0.20;;;17.90;96.90;;;;;;4990595;28;82218;-72
2022/10/02 09:22:56;;;;;;;0.30;0.10;;;18.40;96.00;;;;;;4984371;28;81620;-73
2022/10/02 09:25:36;;;;;;;0.45;0.10;;;19.50;91.90;;;;;;4986005;28;81486;-73
2022/10/02 09:28:20;;;;;;;0.30;0.08;;;20.30;92.10;;;;;;4986099;28;82085;-73
2022/10/02 09:30:59;;;;;;;0.80;0.10;;;20.30;87.50;;;;;;4975752;28;82883;-73
2022/10/02 09:33:50;;;;;;;0.60;0.10;;;19.90;90.00;;;;;;4983008;28;81897;-73
2022/10/02 09:36:37;;;;;;;0.88;0.10;;;19.40;89.00;;;;;;4987767;28;81299;-73
2022/10/02 09:39:35;;;;;;;0.88;0.10;;;19.00;90.90;;;;;;4986419;28;81459;-73
2022/10/02 09:42:26;;;;;;;0.70;0.10;;;18.90;91.80;;;;;;4983814;28;81939;-72
2022/10/02 09:45:13;;;;;;;0.80;0.40;;;18.90;91.40;;;;;;4985303;28;81447;-73
2022/10/02 09:48:16;;;;;;;0.30;0.08;;;19.20;92.40;;;;;;4985304;28;80890;-73
2022/10/02 09:51:12;;;;;;;0.45;0.10;;;19.60;90.60;;;;;;4984377;28;82443;-72
2022/10/02 09:53:52;;;;;;;1.00;0.13;;;19.80;90.30;;;;;;4987310;28;81069;-72
2022/10/02 09:56:48;;;;;;;0.60;0.10;;;19.60;90.30;;;;;;4985904;28;81504;-73
2022/10/02 09:59:32;;;;;;;0.88;0.20;;;19.50;90.20;;;;;;4988535;28;80712;-72
2022/10/02 10:02:32;;;;;;;1.17;0.10;;;19.40;90.30;;;;;;4984983;28;81170;-73
2022/10/02 10:05:12;;;;;;;0.52;0.22;;;19.40;91.40;;;;;;4990658;28;81075;-73
2022/10/02 10:07:49;;;;;;;1.33;0.20;;;19.40;89.50;;;;;;4984887;28;81282;-73
2022/10/02 10:10:48;;;;;;;0.50;0.15;;;19.70;88.10;;;;;;4976512;28;81891;-72
2022/10/02 10:13:36;;;;;;;0.88;0.13;;;20.50;85.20;;;;;;4978704;28;82346;-73
2022/10/02 10:16:47;;;;;;;0.68;0.50;;;21.00;84.40;;;;;;4986098;28;81064;-73
2022/10/02 10:19:31;;;;;;;2.35;0.10;;;21.20;83.30;;;;;;4989928;28;82158;-72
2022/10/02 10:22:30;;;;;;;1.02;0.10;;;21.00;84.20;;;;;;4985583;28;81610;-73
2022/10/02 10:25:17;;;;;;;1.83;0.10;;;20.90;81.00;;;;;;4975948;28;81687;-73
2022/10/02 10:28:07;;;;;;;0.80;0.13;;;20.80;81.10;;;;;;4986431;28;81178;-73
2022/10/02 10:30:32;;;;;;;0.90;0.20;;;20.30;83.80;;;;;;4988757;28;81403;-73
2022/10/02 10:33:35;;;;;;;0.80;0.20;;;20.10;84.00;;;;;;4992828;28;81152;-73
2022/10/02 10:38:31;;;;;;;3.42;0.82;;;19.70;86.20;;;;;;4990399;28;81519;-74
2022/10/02 10:39:10;;;;;;;1.55;0.30;;;19.50;88.50;;;;;;4986536;28;81329;-73
2022/10/02 10:42:00;;;;;;;3.03;0.40;;;19.20;88.90;;;;;;4988922;28;81305;-73
2022/10/02 10:44:52;;;;;;;0.88;0.20;;;18.90;90.20;;;;;;4990678;28;80664;-73
2022/10/02 10:47:32;;;;;;;0.88;0.10;;;18.70;90.70;;;;;;4988684;28;82684;-72
2022/10/02 10:50:04;;;;;;;0.80;0.10;;;18.80;90.80;;;;;;4986002;28;81274;-73
2022/10/02 10:53:02;;;;;;;2.53;0.13;;;18.90;92.20;;;;;;4980707;28;81620;-73
2022/10/02 10:56:00;;;;;;;0.57;0.10;;;19.00;92.00;;;;;;4984819;28;81740;-73
2022/10/02 10:59:11;;;;;;;0.63;0.10;;;18.90;94.00;;;;;;4978863;28;81909;-73
2022/10/02 11:01:59;;;;;;;0.50;0.10;;;19.00;92.80;;;;;;4972945;28;81813;-73
2022/10/02 11:04:54;;;;;;;1.17;0.20;;;19.00;93.40;;;;;;4985214;28;81837;-73
2022/10/02 11:07:38;;;;;;;1.05;0.17;;;19.10;93.40;;;;;;4986321;28;81199;-73
2022/10/02 11:10:26;;;;;;;0.70;0.10;;;19.40;93.60;;;;;;4985858;28;82078;-73
2022/10/02 11:13:00;;;;;;;0.90;0.20;;;19.40;93.60;;;;;;4987937;28;81804;-73
2022/10/02 11:15:46;;;;;;;1.63;0.35;;;19.10;92.70;;;;;;4990272;28;81521;-73
2022/10/02 11:18:25;;;;;;;1.48;0.38;;;18.70;94.10;;;;;;4988538;28;81178;-73
2022/10/02 11:21:38;;;;;;;3.58;1.35;;;18.60;96.10;;;;;;4989425;28;81935;-73
2022/10/02 11:24:29;;;;;;;1.88;0.52;;;18.90;96.70;;;;;;4985037;28;81825;-73
2022/10/02 11:27:01;;;;;;;3.53;0.43;;;18.90;96.50;;;;;;4990386;28;81722;-73
2022/10/02 11:30:24;;;;;;;0.82;0.40;;;18.90;98.20;;;;;;4990532;28;80891;-73
2022/10/02 11:33:09;;;;;;;1.35;0.13;;;18.60;97.20;;;;;;4947721;28;81254;-73
2022/10/02 11:35:43;;;;;;;1.30;0.20;;;18.50;97.20;;;;;;4949429;28;81856;-73
2022/10/02 11:38:08;;;;;;;0.88;0.20;;;18.60;99.90;;;;;;4975755;28;81596;-73
2022/10/02 11:40:55;;;;;;;4.63;0.20;;;18.20;99.90;;;;;;4989308;28;82058;-73
2022/10/02 11:43:31;;;;;;;2.50;0.60;;;18.00;99.90;;;;;;4990282;28;82791;-73
2022/10/02 11:46:15;;;;;;;3.83;0.60;;;18.20;99.90;;;;;;4988664;28;82471;-73
2022/10/02 11:48:46;;;;;;;6.72;1.42;;;18.50;99.90;;;;;;4991532;28;81482;-73
2022/10/02 11:51:45;;;;;;;1.48;0.30;;;18.60;99.90;;;;;;4987664;28;81288;-73
2022/10/02 11:54:34;;;;;;;1.80;0.32;;;18.80;99.90;;;;;;4983105;28;82577;-73
2022/10/02 11:57:31;;;;;;;0.75;0.13;;;19.00;99.90;;;;;;4990812;28;82280;-73
2022/10/02 12:00:13;;;;;;;1.90;0.25;;;19.10;99.90;;;;;;4980867;28;82213;-73
2022/10/02 12:03:20;;;;;;;0.98;0.10;;;18.90;99.90;;;;;;4983985;28;80890;-73
2022/10/02 12:05:54;;;;;;;0.60;0.20;;;19.10;99.90;;;;;;4988238;28;81222;-73
2022/10/02 12:08:29;;;;;;;0.70;0.30;;;19.40;99.90;;;;;;4987655;28;81849;-73
2022/10/02 12:10:54;;;;;;;0.35;0.05;;;19.50;99.90;;;;;;4987048;28;81862;-73
2022/10/02 12:13:47;;;;;;;0.60;0.10;;;19.40;98.80;;;;;;4991417;28;81202;-73
2022/10/02 12:16:51;;;;;;;1.80;0.28;;;19.30;98.70;;;;;;4988455;28;81537;-73
2022/10/02 12:19:22;;;;;;;2.15;0.43;;;19.00;99.70;;;;;;4990990;28;81688;-73
2022/10/02 12:29:15;;;;;;;2.33;0.10;;;18.70;99.90;;;;;;4986114;28;81388;-73
2022/10/02 12:32:13;;;;;;;1.08;0.03;;;18.90;99.90;;;;;;4956108;28;81796;-73
2022/10/02 12:34:47;;;;;;;1.38;0.10;;;19.00;99.90;;;;;;4991622;28;82794;-73
2022/10/02 12:37:20;;;;;;;0.40;0.10;;;19.10;99.90;;;;;;4994847;28;81997;-73
2022/10/02 12:39:59;;;;;;;0.30;0.00;;;19.10;99.90;;;;;;4993809;28;81652;-73
2022/10/02 12:43:07;;;;;;;0.82;0.10;;;19.30;99.90;;;;;;4988969;28;83281;-73
2022/10/02 12:46:01;;;;;;;0.15;0.00;;;19.50;97.40;;;;;;4988900;28;82219;-73
2022/10/02 12:48:52;;;;;;;0.20;0.00;;;19.50;97.70;;;;;;4983860;28;82933;-73
2022/10/02 12:51:24;;;;;;;0.22;0.03;;;19.70;98.00;;;;;;4992564;28;81594;-72
2022/10/02 12:54:16;;;;;;;0.43;0.25;;;20.10;96.90;;;;;;4993426;28;81844;-73
2022/10/02 13:00:07;;;;;;;0.20;0.15;;;20.40;95.20;;;;;;4982958;28;81797;-73
2022/10/02 13:03:04;;;;;;;0.22;0.13;;;20.10;94.60;;;;;;4985588;28;84622;-73
2022/10/02 13:06:02;;;;;;;0.60;0.10;;;20.10;94.70;;;;;;4986216;28;81823;-72
2022/10/02 13:08:40;;;;;;;0.20;0.10;;;20.30;95.60;;;;;;4987119;28;82052;-73
2022/10/02 13:11:27;;;;;;;0.45;0.22;;;21.00;95.20;;;;;;4988900;28;81652;-73
2022/10/02 13:14:15;;;;;;;0.90;0.30;;;21.60;93.40;;;;;;4989953;28;82180;-74
2022/10/02 13:16:45;;;;;;;1.38;0.10;;;21.70;91.50;;;;;;4985662;28;82935;-73
2022/10/02 13:19:22;;;;;;;0.47;0.10;;;21.90;91.30;;;;;;4988618;28;82199;-74
2022/10/02 13:22:08;;;;;;;0.50;0.10;;;22.10;91.00;;;;;;4989447;28;81293;-74
2022/10/02 13:24:53;;;;;;;0.63;0.10;;;22.40;90.30;;;;;;4991191;28;82053;-74
2022/10/02 13:27:41;;;;;;;1.15;0.32;;;22.20;89.80;;;;;;4988067;28;81787;-74
2022/10/02 13:30:18;;;;;;;1.10;0.40;;;21.90;90.60;;;;;;4991120;28;83001;-74
2022/10/02 13:32:53;;;;;;;0.77;0.25;;;21.60;90.10;;;;;;4988389;28;82792;-74
2022/10/02 13:35:48;;;;;;;1.05;0.40;;;21.50;89.70;;;;;;4990866;28;81226;-74
2022/10/02 13:38:31;;;;;;;0.77;0.30;;;21.10;91.10;;;;;;4984758;28;81949;-74
2022/10/02 13:41:18;;;;;;;1.17;0.43;;;21.20;91.20;;;;;;4991065;28;82051;-74
2022/10/02 13:43:50;;;;;;;0.65;0.15;;;21.40;91.60;;;;;;4984181;28;82828;-74
2022/10/02 13:46:35;;;;;;;0.60;0.20;;;21.40;91.40;;;;;;4988815;28;81806;-74
2022/10/02 13:49:32;;;;;;;2.42;1.02;;;21.50;90.70;;;;;;4979898;28;81593;-74
2022/10/02 13:52:16;;;;;;;2.40;0.52;;;21.70;91.80;;;;;;4973826;28;82260;-74
2022/10/02 13:55:07;;;;;;;1.20;0.30;;;22.00;90.80;;;;;;4979040;28;81976;-74
2022/10/02 13:58:04;;;;;;;0.90;0.20;;;21.80;90.30;;;;;;4984181;28;83501;-74
2022/10/02 14:00:41;;;;;;;1.25;0.40;;;21.50;90.60;;;;;;4987420;28;82147;-74
2022/10/02 14:03:16;;;;;;;0.80;0.20;;;21.60;90.40;;;;;;4985538;28;81960;-74
2022/10/02 14:06:20;;;;;;;1.48;0.28;;;21.60;90.90;;;;;;4985083;28;81622;-74
2022/10/02 14:09:11;;;;;;;0.85;0.38;;;21.60;91.10;;;;;;4972542;28;81693;-74
2022/10/02 14:11:52;;;;;;;0.82;0.20;;;21.70;90.50;;;;;;4985976;28;81834;-74
2022/10/02 14:14:23;;;;;;;0.82;0.20;;;21.70;90.80;;;;;;4985385;28;82076;-74
2022/10/02 14:17:18;;;;;;;0.60;0.20;;;21.80;90.60;;;;;;4987749;28;82085;-74
2022/10/02 14:20:17;;;;;;;1.73;0.43;;;21.80;90.20;;;;;;4986761;28;81321;-74
2022/10/02 14:22:43;;;;;;;0.75;0.32;;;21.50;90.00;;;;;;4975248;28;83054;-74
2022/10/02 14:25:21;;;;;;;0.63;0.15;;;21.30;90.10;;;;;;4988400;28;83031;-74
2022/10/02 14:28:12;;;;;;;2.45;0.40;;;21.10;90.80;;;;;;4984420;28;83309;-74
2022/10/02 14:31:13;;;;;;;0.60;0.30;;;21.10;90.50;;;;;;4984669;28;81867;-74
2022/10/02 14:34:33;;;;;;;0.75;0.10;;;21.00;90.50;;;;;;4974779;28;82572;-74
2022/10/02 14:37:23;;;;;;;0.60;0.22;;;20.90;90.70;;;;;;4974683;28;82227;-74
2022/10/02 14:39:49;;;;;;;1.05;0.13;;;20.90;91.50;;;;;;4979027;28;82422;-74
2022/10/02 14:42:18;;;;;;;0.88;0.13;;;20.80;91.10;;;;;;4982619;28;81922;-76
2022/10/02 14:44:46;;;;;;;0.32;0.10;;;20.70;91.10;;;;;;4981345;28;81815;-68
2022/10/02 14:47:27;;;;;;;1.58;0.20;;;20.90;92.10;;;;;;4986887;28;81762;-68
2022/10/02 14:50:18;;;;;;;0.65;0.13;;;21.20;91.10;;;;;;4985317;28;82764;-68
2022/10/02 14:53:09;;;;;;;2.20;0.20;;;21.30;90.70;;;;;;4983461;28;83136;-67
2022/10/02 14:56:07;;;;;;;1.45;0.32;;;21.50;91.00;;;;;;4979783;28;83331;-67
2022/10/02 14:58:35;;;;;;;0.40;0.10;;;21.50;90.00;;;;;;4983833;28;81545;-68
2022/10/02 15:01:20;;;;;;;0.55;0.10;;;21.60;89.70;;;;;;4982110;28;82021;-67
2022/10/02 15:04:03;;;;;;;0.70;0.20;;;21.70;89.90;;;;;;4981809;28;81390;-68
2022/10/02 15:06:45;;;;;;;1.08;0.13;;;21.50;88.20;;;;;;4987585;28;81433;-67
2022/10/02 15:09:11;;;;;;;1.00;0.40;;;21.30;88.30;;;;;;4986486;28;81646;-67
2022/10/02 15:11:37;;;;;;;0.70;0.10;;;21.30;90.10;;;;;;4985315;28;81415;-68
2022/10/02 15:14:12;;;;;;;1.63;0.22;;;21.40;90.60;;;;;;4985761;28;81635;-68
2022/10/02 15:20:05;;;;;;;0.82;0.35;;;21.30;89.00;;;;;;4987507;28;82766;-67
2022/10/02 15:22:45;;;;;;;0.65;0.20;;;20.90;87.90;;;;;;4982447;28;82143;-67
2022/10/02 15:25:27;;;;;;;2.22;0.20;;;20.80;89.10;;;;;;4981059;28;81262;-68
2022/10/02 15:27:56;;;;;;;3.13;0.10;;;20.80;90.40;;;;;;4979338;28;82280;-67
2022/10/02 15:30:23;;;;;;;2.03;0.10;;;20.70;89.70;;;;;;4980582;28;81466;-67
2022/10/02 15:32:58;;;;;;;0.80;0.30;;;20.70;89.10;;;;;;4985689;28;81935;-67
2022/10/02 15:35:30;;;;;;;0.35;0.10;;;20.50;90.00;;;;;;4982724;28;81189;-67
2022/10/02 15:38:28;;;;;;;2.22;0.17;;;20.40;90.30;;;;;;4984553;28;81981;-67
2022/10/02 15:41:03;;;;;;;1.42;0.25;;;20.40;89.00;;;;;;4981191;28;82247;-67
2022/10/02 15:43:48;;;;;;;0.90;0.22;;;20.30;89.80;;;;;;4980880;28;82246;-66
2022/10/02 15:46:52;;;;;;;0.80;0.22;;;20.40;89.50;;;;;;4986623;28;82767;-67
2022/10/02 15:50:00;;;;;;;1.90;0.38;;;20.40;88.30;;;;;;4980879;28;84772;-68
2022/10/02 15:52:41;;;;;;;0.52;0.10;;;20.20;86.90;;;;;;4985668;28;83309;-67
2022/10/02 15:55:42;;;;;;;5.05;0.10;;;20.00;87.30;;;;;;4985387;28;81890;-67
2022/10/02 15:58:30;;;;;;;0.35;0.10;;;19.90;86.40;;;;;;4978589;28;82005;-66
2022/10/02 16:01:09;;;;;;;2.38;0.30;;;19.80;87.60;;;;;;4984126;28;81877;-67
2022/10/02 16:03:38;;;;;;;5.10;0.20;;;19.70;86.70;;;;;;4982822;28;81976;-67
2022/10/02 16:06:30;;;;;;;;;;;19.70;87.60;;;;;;4988920;28;81943;-73
2022/10/02 16:08:59;;;;;;;0.70;0.10;;;19.80;86.40;;;;;;4988118;28;81271;-72
2022/10/02 16:11:42;;;;;;;1.27;0.20;;;19.90;88.00;;;;;;4983317;28;82755;-73
2022/10/02 16:14:51;;;;;;;1.98;0.63;;;20.10;85.40;;;;;;4983158;28;84410;-73
2022/10/02 16:17:37;;;;;;;1.02;0.10;;;20.10;86.80;;;;;;4959340;28;82139;-73
2022/10/02 16:20:06;;;;;;;0.57;0.03;;;20.30;84.80;;;;;;4979901;28;81814;-73
2022/10/02 16:22:42;;;;;;;1.48;0.10;;;20.20;85.30;;;;;;4984363;28;82878;-73
2022/10/02 16:25:23;;;;;;;0.32;0.13;;;20.00;84.90;;;;;;4981169;28;82109;-73
2022/10/02 16:28:10;;;;;;;0.43;0.10;;;19.80;85.30;;;;;;4984806;28;81921;-73
2022/10/02 16:30:58;;;;;;;0.65;0.10;;;19.60;84.10;;;;;;4981345;28;83316;-72
2022/10/02 16:33:37;;;;;;;0.63;0.10;;;19.60;84.00;;;;;;4987185;28;81761;-72
2022/10/02 16:36:28;;;;;;;0.50;0.10;;;19.40;85.40;;;;;;4983858;28;82201;-73
2022/10/02 16:39:14;;;;;;;0.50;0.25;;;19.40;85.50;;;;;;4985972;28;82651;-73
2022/10/02 16:41:56;;;;;;;0.60;0.10;;;19.30;86.10;;;;;;4987704;28;82918;-73
2022/10/02 16:44:46;;;;;;;0.40;0.10;;;19.10;85.50;;;;;;4987566;28;83254;-73
2022/10/02 16:47:45;;;;;;;2.42;0.13;;;18.90;88.10;;;;;;4987428;28;82272;-72
2022/10/02 16:50:11;;;;;;;1.63;0.10;;;18.90;86.10;;;;;;4985119;28;81890;-72
2022/10/02 16:53:04;;;;;;;0.93;0.10;;;18.80;87.80;;;;;;4986894;28;81639;-73
2022/10/02 16:55:47;;;;;;;3.92;0.30;;;18.80;86.50;;;;;;4987257;28;82308;-73
2022/10/02 16:58:29;;;;;;;0.60;0.10;;;18.80;85.80;;;;;;4985632;28;82257;-72
2022/10/02 17:01:00;;;;;;;0.50;0.10;;;18.70;87.00;;;;;;4984935;28;82013;-72
2022/10/02 17:03:40;;;;;;;0.57;0.10;;;18.70;87.30;;;;;;4985145;28;81226;-72
2022/10/02 17:06:14;;;;;;;0.70;0.40;;;18.60;88.00;;;;;;4987074;28;82192;-73
2022/10/02 17:09:08;;;;;;;5.43;0.10;;;18.60;89.00;;;;;;4985440;28;83625;-72
2022/10/02 17:11:50;;;;;;;0.68;0.20;;;18.70;87.30;;;;;;4985786;28;82129;-72
2022/10/02 17:14:26;;;;;;;1.38;0.15;;;18.70;87.10;;;;;;4978521;28;82429;-72
2022/10/02 17:16:56;;;;;;;4.00;0.28;;;18.60;88.50;;;;;;4981804;28;83864;-73
2022/10/02 17:19:48;;;;;;;0.80;0.30;;;18.60;89.50;;;;;;4984168;28;83264;-72
2022/10/02 17:22:41;;;;;;;1.58;0.20;;;18.60;89.90;;;;;;4983882;28;83022;-72
2022/10/02 17:25:28;;;;;;;1.10;0.15;;;18.60;90.10;;;;;;4990758;28;81235;-73
2022/10/02 17:28:09;;;;;;;5.25;1.17;;;18.40;90.70;;;;;;4987914;28;82250;-72
2022/10/02 17:30:56;;;;;;;2.05;0.47;;;18.40;90.70;;;;;;4984061;28;83050;-72
2022/10/02 17:33:25;;;;;;;1.38;0.30;;;18.30;91.10;;;;;;4983827;28;82717;-72
2022/10/02 17:36:05;;;;;;;4.03;0.20;;;18.20;91.30;;;;;;4988623;28;82764;-72
2022/10/02 17:38:43;;;;;;;4.30;0.20;;;18.20;91.40;;;;;;4979133;28;81948;-72
2022/10/02 17:41:27;;;;;;;1.48;0.22;;;18.10;91.50;;;;;;4975871;28;81935;-71
2022/10/02 17:44:26;;;;;;;1.30;0.25;;;18.00;92.20;;;;;;4988148;28;81983;-71
2022/10/02 17:47:16;;;;;;;3.45;0.35;;;17.90;92.70;;;;;;4988759;28;81797;-71
2022/10/02 17:50:01;;;;;;;1.23;0.20;;;17.80;93.10;;;;;;4989292;28;81241;-71
2022/10/02 17:58:04;;;;;;;3.63;1.40;;;17.50;95.10;;;;;;4989183;28;81517;-71
2022/10/02 18:00:34;;;;;;;4.28;1.65;;;17.50;94.50;;;;;;4980873;28;81751;-70
2022/10/02 18:03:37;;;;;;;5.05;1.85;;;17.50;94.90;;;;;;4983589;28;82514;-71
2022/10/02 18:06:12;;;;;;;9.07;3.50;;;17.40;95.20;;;;;;4989727;28;83855;-70
2022/10/02 18:09:01;;;;;;;7.10;3.40;;;17.40;95.30;;;;;;4991191;28;81281;-72
2022/10/02 18:11:45;;;;;;;12.45;4.72;;;17.20;96.90;;;;;;4988030;28;81919;-71
2022/10/02 18:14:36;;;;;;;11.02;4.35;;;17.20;97.30;;;;;;4984671;28;82218;-71
2022/10/02 18:17:26;;;;;;;8.32;3.50;;;17.20;97.70;;;;;;4984995;28;82203;-71
2022/10/02 18:20:13;;;;;;;9.77;3.88;;;17.30;96.20;;;;;;4988462;28;82546;-71
2022/10/02 18:22:57;;;;;;;7.47;3.00;;;17.30;96.00;;;;;;4990917;28;81842;-71
2022/10/02 18:25:34;;;;;;;6.13;2.42;;;17.20;95.70;;;;;;4981899;28;82007;-70
2022/10/02 18:28:48;;;;;;;6.07;2.05;;;17.10;96.40;;;;;;4985319;28;81196;-71
2022/10/02 18:31:25;;;;;;;6.28;2.40;;;17.10;96.20;;;;;;4969661;28;82569;-72
2022/10/02 18:34:29;;;;;;;6.70;2.20;;;17.20;96.00;;;;;;4986521;28;81884;-71
2022/10/02 18:37:08;;;;;;;7.25;1.55;;;17.20;94.50;;;;;;4987125;28;82200;-71
2022/10/02 18:39:41;;;;;;;3.25;1.13;;;17.20;93.80;;;;;;4989739;28;82021;-70
2022/10/02 18:42:21;;;;;;;4.15;1.20;;;17.20;93.10;;;;;;4985294;28;81985;-70
2022/10/02 18:44:57;;;;;;;2.70;0.52;;;17.40;92.50;;;;;;4982673;28;81781;-69
2022/10/02 18:47:42;;;;;;;;;;;17.40;92.00;;;;;;4989587;28;81933;-72
2022/10/02 18:50:26;;;;;;;1.42;0.30;;;17.30;90.70;;;;;;4987609;28;81821;-71
2022/10/02 18:53:11;;;;;;;0.65;0.15;;;17.30;91.40;;;;;;4990712;28;81844;-72
2022/10/02 18:55:57;;;;;;;1.05;0.20;;;17.20;89.40;;;;;;4988759;28;82298;-72
2022/10/02 18:58:46;;;;;;;0.90;0.20;;;17.30;90.80;;;;;;4987831;28;83085;-72
2022/10/02 19:01:14;;;;;;;;;;;17.30;91.00;;;;;;4983248;28;82927;-72